Del Mar, California
Current Conditions -  °F | °C
As of 9:55 PM on Tuesday 21 Oct 2014 (Local Time) from KNKX Reporting Station
Few Clouds Few Clouds  
Wind Chill: 61°   Ceiling: Unl
Heat Index: 61°   Visibility: 9mi
Dew Point: 57°   Wind: 0mph
Humidity: 87%   Direction: NA
Pressure: 29.89"   Gusts: NA
Location:  32.96°N, 117.27°W
Report Text: KNKX 220455Z 00000KT 9SM FEW015 16/14 A2989 RMK AO2 SLP116 T01610139
Loading
Personal Weather Stations






























Interactive Weather Map
Tropical Storm Tracking
New forecast layout! Learn more

10-Day Weather Forecast

Advertisements
Track Severe Weather on mobile